Anacostia, District of Columbia
Current Conditions -  °F | °C
As of 2:52 AM on Sunday 23 Nov 2014 (Local Time) from KDCA Reporting Station
Scattered Clouds Scattered Clouds  
Wind Chill:   Ceiling: Unl
Heat Index:   Visibility: 10mi
Dew Point: -8°   Wind: 10mph
Humidity: 35%   Direction: 190°S
Pressure: 30.23"   Gusts: NA
Location:  38.8618°N, 77.0026°W
Report Text: KDCA 230752Z 19009KT 10SM SCT110 07/M08 A3023 RMK AO2 SLP236 T00671078
Loading
Personal Weather Stations






























Interactive Weather Map New forecast layout! Learn more

10-Day Weather Forecast

Advertisements
Track Severe Weather on mobile